Decoded Metar for LFMU (BEZIERS in FRANCE) (IATA:BZR) | Meteo·Mobile Aviation Weather
aviador You're here:

LFMU Decoded Metar

BEZIERS in FRANCE
Report Time2019-03-20 15:30:00
UTC Time2019-03-20 16:06:06
Flight Rules vfr VFR
WindVRB at 03 kt
Visibility9999 m
Phenomena:N/A
Clouds:N/A
Expected CloudBase > 8,800 ft AGL from Temp-Dew spread
CeilingNone
Temp18°C (ISA +3)
Dew Point-4°C (22% RH)
AAT14.4°C
QNH1026 hPa
Density Alt52 ft
Elevation56 ft
Report Wrong Elevation
Raw Report
LFMU 201530Z AUTO VRB03KT CAVOK 18/M04 Q1026 NOSIG=

Extra information for LFMU:More info

Metar Taf Metar & Taf Last 4 Metars F.Rules Stats Wind Profile Meteogram Temp Stats Airport Information Weather charts Add Link Nearby VenuesMetar ALERT Operation Metar Decoded Social comments